createdAt,value
2023-04-02T00:01:36.987Z,2.63
2023-04-02T00:04:09.567Z,2.63
2023-04-02T00:06:44.743Z,2.64
2023-04-02T00:09:14.217Z,2.57
2023-04-02T00:11:44.607Z,2.71
2023-04-02T00:14:37.100Z,2.64
2023-04-02T00:17:05.648Z,2.59
2023-04-02T00:19:38.326Z,2.56
2023-04-02T00:22:09.653Z,2.57
2023-04-02T00:24:39.125Z,2.55
2023-04-02T00:27:10.336Z,2.48
2023-04-02T00:29:36.961Z,2.51
2023-04-02T00:32:04.669Z,2.44
2023-04-02T00:34:38.024Z,2.43
2023-04-02T00:37:04.852Z,2.43
2023-04-02T00:39:47.147Z,2.51
2023-04-02T00:42:13.648Z,2.44
2023-04-02T00:44:43.702Z,2.48
2023-04-02T00:47:37.400Z,2.44
2023-04-02T00:50:14.457Z,2.33
2023-04-02T00:52:43.010Z,2.28
2023-04-02T00:55:20.976Z,2.30
2023-04-02T00:57:49.409Z,2.32
2023-04-02T01:00:27.384Z,2.30
2023-04-02T01:03:16.449Z,2.36
2023-04-02T01:06:02.796Z,2.43
2023-04-02T01:08:52.148Z,2.27
2023-04-02T01:11:28.404Z,2.08
2023-04-02T01:14:07.317Z,2.18
2023-04-02T01:16:54.089Z,2.10
2023-04-02T01:19:39.538Z,2.10
2023-04-02T01:22:14.630Z,2.06
2023-04-02T01:24:43.926Z,2.17
2023-04-02T01:27:23.818Z,2.13
2023-04-02T01:29:56.678Z,2.14
2023-04-02T01:32:26.267Z,1.97
2023-04-02T01:34:54.576Z,2.00
2023-04-02T01:37:56.121Z,1.97
2023-04-02T01:40:50.765Z,1.93
2023-04-02T01:43:29.745Z,1.99
2023-04-02T01:45:59.455Z,1.97
2023-04-02T01:48:30.434Z,1.97
2023-04-02T01:51:00.558Z,1.98
2023-04-02T01:53:31.356Z,1.90
2023-04-02T01:56:02.921Z,1.89
2023-04-02T01:58:31.876Z,1.90
2023-04-02T02:01:04.196Z,1.93
2023-04-02T02:03:33.842Z,1.87
2023-04-02T02:06:03.246Z,1.80
2023-04-02T02:08:39.016Z,1.94
2023-04-02T02:11:11.816Z,1.85
2023-04-02T02:13:39.125Z,1.78
2023-04-02T02:16:12.673Z,1.82
2023-04-02T02:18:39.493Z,1.79
2023-04-02T02:21:09.504Z,1.78
2023-04-02T02:23:36.874Z,1.78
2023-04-02T02:26:06.590Z,1.82
2023-04-02T02:28:40.453Z,1.75
2023-04-02T02:31:17.536Z,1.72
2023-04-02T02:33:51.073Z,1.65
2023-04-02T02:36:33.714Z,1.70
2023-04-02T02:39:12.644Z,1.70
2023-04-02T02:41:54.735Z,1.69
2023-04-02T02:44:26.096Z,1.75
2023-04-02T02:47:02.229Z,1.73
2023-04-02T02:49:32.978Z,1.70
2023-04-02T02:52:17.429Z,1.77
2023-04-02T02:55:14.529Z,1.79
2023-04-02T02:57:56.300Z,1.73
2023-04-02T03:00:26.764Z,1.75
2023-04-02T03:02:56.495Z,1.80
2023-04-02T03:05:28.496Z,1.84
2023-04-02T03:08:01.971Z,1.94
2023-04-02T03:10:54.351Z,1.85
2023-04-02T03:13:32.992Z,1.84
2023-04-02T03:16:11.288Z,1.88
2023-04-02T03:18:45.573Z,1.76
2023-04-02T03:21:28.232Z,1.75
2023-04-02T03:24:01.276Z,1.78
2023-04-02T03:26:38.315Z,1.75
2023-04-02T03:29:16.370Z,1.78
2023-04-02T03:31:50.472Z,1.71
2023-04-02T03:34:25.970Z,1.75
2023-04-02T03:37:46.981Z,1.74
2023-04-02T03:40:26.173Z,1.80
2023-04-02T03:42:58.302Z,1.77
2023-04-02T03:45:32.692Z,1.66
2023-04-02T03:48:12.137Z,1.76
2023-04-02T03:50:58.861Z,1.72
2023-04-02T03:53:27.439Z,1.69
2023-04-02T03:55:56.473Z,1.72
2023-04-02T03:58:39.435Z,1.65
2023-04-02T04:01:20.214Z,1.73
2023-04-02T04:03:53.089Z,1.77
2023-04-02T04:06:32.011Z,1.69
2023-04-02T04:09:08.765Z,1.67
2023-04-02T04:11:39.527Z,1.64
2023-04-02T04:14:16.633Z,1.69
2023-04-02T04:16:53.556Z,1.70
2023-04-02T04:19:29.957Z,1.67
2023-04-02T04:22:19.035Z,1.69
2023-04-02T04:24:49.313Z,1.64
2023-04-02T04:27:33.409Z,1.61
2023-04-02T04:30:06.192Z,1.66
2023-04-02T04:32:42.657Z,1.65
2023-04-02T04:35:35.086Z,1.70
2023-04-02T04:38:27.458Z,1.72
2023-04-02T04:41:15.927Z,1.69
2023-04-02T04:43:51.673Z,1.68
2023-04-02T04:46:40.657Z,1.70
2023-04-02T04:49:38.460Z,1.74
2023-04-02T04:52:14.164Z,1.79
2023-04-02T04:54:42.242Z,1.89
2023-04-02T04:57:42.570Z,1.74
2023-04-02T05:00:19.575Z,1.93
2023-04-02T05:02:53.627Z,1.86
2023-04-02T05:05:27.390Z,1.83
2023-04-02T05:08:10.971Z,1.87
2023-04-02T05:10:49.684Z,1.84
2023-04-02T05:13:36.067Z,1.85
2023-04-02T05:16:26.241Z,1.77
2023-04-02T05:18:59.793Z,1.68
2023-04-02T05:21:38.652Z,1.67
2023-04-02T05:24:35.931Z,1.74
2023-04-02T05:27:15.984Z,1.75
2023-04-02T05:29:48.872Z,1.81
2023-04-02T05:32:41.165Z,1.77
2023-04-02T05:35:19.155Z,1.84
2023-04-02T05:37:46.784Z,1.74
2023-04-02T05:40:21.267Z,1.78
2023-04-02T05:42:52.874Z,1.85
2023-04-02T05:45:27.728Z,1.93
2023-04-02T05:48:02.104Z,1.91
2023-04-02T05:50:40.296Z,1.85
2023-04-02T05:53:19.561Z,1.87
2023-04-02T05:56:08.821Z,1.87
2023-04-02T05:58:43.954Z,1.83
2023-04-02T06:01:47.560Z,1.96
2023-04-02T06:04:24.051Z,2.00
2023-04-02T06:06:58.583Z,2.06
2023-04-02T06:09:39.765Z,1.91
2023-04-02T06:12:22.460Z,1.84
2023-04-02T06:14:49.314Z,1.92
2023-04-02T06:17:18.641Z,1.91
2023-04-02T06:19:47.709Z,2.01
2023-04-02T06:22:36.827Z,1.85
2023-04-02T06:25:20.731Z,1.80
2023-04-02T06:27:51.597Z,1.80
2023-04-02T06:30:28.446Z,1.85
2023-04-02T06:32:56.576Z,1.90
2023-04-02T06:35:24.404Z,1.94
2023-04-02T06:38:04.311Z,2.12
2023-04-02T06:40:49.603Z,2.10
2023-04-02T06:43:39.521Z,2.17
2023-04-02T06:46:42.699Z,2.07
2023-04-02T06:49:22.649Z,2.19
2023-04-02T06:51:54.532Z,2.26
2023-04-02T06:54:21.345Z,2.32
2023-04-02T06:56:56.330Z,2.36
2023-04-02T06:59:30.925Z,2.41
2023-04-02T07:02:03.697Z,2.45
2023-04-02T07:04:31.049Z,2.30
2023-04-02T07:06:57.500Z,2.30
2023-04-02T07:09:27.363Z,2.31
2023-04-02T07:11:57.241Z,2.39
2023-04-02T07:14:24.511Z,2.50
2023-04-02T07:16:51.628Z,2.52
2023-04-02T07:19:21.072Z,2.48
2023-04-02T07:21:50.533Z,2.58
2023-04-02T07:24:19.132Z,2.69
2023-04-02T07:26:48.083Z,2.81
2023-04-02T07:29:16.225Z,2.76
2023-04-02T07:31:43.047Z,2.73
2023-04-02T07:34:10.391Z,2.75
2023-04-02T07:36:37.310Z,2.84
2023-04-02T07:39:04.559Z,2.89
2023-04-02T07:41:31.572Z,2.86
2023-04-02T07:43:58.227Z,2.81
2023-04-02T07:46:26.275Z,2.90
2023-04-02T07:48:52.732Z,3.03
2023-04-02T07:51:25.113Z,3.04
2023-04-02T07:53:55.923Z,2.96
2023-04-02T07:56:24.238Z,3.01
2023-04-02T07:58:50.987Z,2.96
2023-04-02T08:01:26.302Z,2.96
2023-04-02T08:03:54.750Z,3.01
2023-04-02T08:06:21.940Z,3.10
2023-04-02T08:08:48.433Z,3.12
2023-04-02T08:11:15.190Z,3.18
2023-04-02T08:13:41.777Z,3.27
2023-04-02T08:16:09.642Z,3.24
2023-04-02T08:18:36.512Z,3.24
2023-04-02T08:21:06.731Z,3.28
2023-04-02T08:23:33.352Z,3.26
2023-04-02T08:25:59.794Z,3.26
2023-04-02T08:28:26.434Z,3.43
2023-04-02T08:30:53.092Z,3.50
2023-04-02T08:33:20.020Z,3.48
2023-04-02T08:35:47.879Z,3.34
2023-04-02T08:38:16.780Z,3.41
2023-04-02T08:40:46.757Z,3.47
2023-04-02T08:43:17.907Z,3.43
2023-04-02T08:46:19.332Z,3.34
2023-04-02T08:48:52.897Z,3.46
2023-04-02T08:51:24.188Z,3.47
2023-04-02T08:53:52.624Z,3.39
2023-04-02T08:56:25.625Z,3.49
2023-04-02T08:59:03.770Z,3.45
2023-04-02T09:01:47.261Z,3.60
2023-04-02T09:04:18.762Z,3.68
2023-04-02T09:06:46.235Z,3.65
2023-04-02T09:09:14.762Z,3.64
2023-04-02T09:12:04.564Z,3.64
2023-04-02T09:14:44.961Z,3.66
2023-04-02T09:17:21.171Z,3.73
2023-04-02T09:19:58.723Z,3.71
2023-04-02T09:22:25.336Z,3.82
2023-04-02T09:25:04.281Z,3.85
2023-04-02T09:27:41.725Z,3.84
2023-04-02T09:30:38.946Z,3.97
2023-04-02T09:33:09.902Z,3.87
2023-04-02T09:35:54.488Z,3.81
2023-04-02T09:38:31.726Z,3.94
2023-04-02T09:41:06.030Z,4.08
2023-04-02T09:43:38.080Z,3.97
2023-04-02T09:46:13.512Z,4.01
2023-04-02T09:48:55.280Z,4.05
2023-04-02T09:51:27.013Z,3.91
2023-04-02T09:54:02.616Z,3.97
2023-04-02T09:56:36.683Z,3.98
2023-04-02T09:59:16.865Z,3.94
2023-04-02T10:01:57.318Z,3.96
2023-04-02T10:04:47.437Z,4.16
2023-04-02T10:07:38.515Z,4.38
2023-04-02T10:10:27.821Z,4.49
2023-04-02T10:13:01.823Z,4.59
2023-04-02T10:15:45.942Z,4.60
2023-04-02T10:18:46.726Z,4.54
2023-04-02T10:21:18.271Z,4.62
2023-04-02T10:23:45.011Z,4.75
2023-04-02T10:26:46.773Z,4.60
2023-04-02T10:29:47.619Z,4.60
2023-04-02T10:32:23.391Z,4.80
2023-04-02T10:35:11.335Z,5.00
2023-04-02T10:37:50.121Z,4.92
2023-04-02T10:40:19.760Z,5.04
2023-04-02T10:43:05.336Z,5.14
2023-04-02T10:45:54.486Z,5.22
2023-04-02T10:48:32.786Z,5.35
2023-04-02T10:51:17.500Z,5.42
2023-04-02T10:53:51.367Z,5.51
2023-04-02T10:56:17.765Z,5.81
2023-04-02T10:58:59.272Z,6.20
2023-04-02T11:01:29.705Z,6.18
2023-04-02T11:04:17.317Z,6.48
2023-04-02T11:07:07.058Z,6.26
2023-04-02T11:09:44.435Z,6.14
2023-04-02T11:12:23.341Z,6.15
2023-04-02T11:14:50.972Z,5.83
2023-04-02T11:17:18.390Z,5.82
2023-04-02T11:19:44.872Z,5.72
2023-04-02T11:22:16.955Z,5.69
2023-04-02T11:24:48.004Z,5.57
2023-04-02T11:27:23.571Z,5.74
2023-04-02T11:30:01.405Z,5.99
2023-04-02T11:32:42.834Z,6.34
2023-04-02T11:35:26.914Z,6.63
2023-04-02T11:37:57.117Z,6.49
2023-04-02T11:40:47.333Z,6.81
2023-04-02T11:43:32.642Z,7.03
2023-04-02T11:46:04.539Z,7.40
2023-04-02T11:48:36.382Z,7.55
2023-04-02T11:51:21.425Z,7.26
2023-04-02T11:53:50.589Z,7.32
2023-04-02T11:56:21.177Z,7.47
2023-04-02T11:58:54.671Z,7.78
2023-04-02T12:01:33.328Z,7.66
2023-04-02T12:04:52.094Z,7.75
2023-04-02T12:07:27.921Z,7.60
2023-04-02T12:09:57.847Z,7.26
2023-04-02T12:12:24.217Z,7.05
2023-04-02T12:14:56.337Z,7.16
2023-04-02T12:17:33.780Z,7.15
2023-04-02T12:20:08.076Z,7.19
2023-04-02T12:22:38.008Z,7.65
2023-04-02T12:25:32.568Z,7.88
2023-04-02T12:28:14.370Z,8.43
2023-04-02T12:30:41.922Z,8.67
2023-04-02T12:33:39.043Z,8.72
2023-04-02T12:36:14.399Z,8.79
2023-04-02T12:38:47.837Z,8.59
2023-04-02T12:41:36.546Z,8.12
2023-04-02T12:44:05.013Z,7.68
2023-04-02T12:46:34.658Z,7.56
2023-04-02T12:49:24.580Z,7.78
2023-04-02T12:51:51.935Z,8.03
2023-04-02T12:54:20.510Z,8.11
2023-04-02T12:56:48.533Z,8.45
2023-04-02T12:59:28.379Z,8.83
2023-04-02T13:01:59.685Z,8.53
2023-04-02T13:04:26.941Z,9.03
2023-04-02T13:06:58.413Z,9.46
2023-04-02T13:09:30.073Z,9.32
2023-04-02T13:11:56.949Z,9.17
2023-04-02T13:14:24.638Z,9.18
2023-04-02T13:16:51.300Z,9.42
2023-04-02T13:19:17.631Z,9.52
2023-04-02T13:21:45.252Z,9.17
2023-04-02T13:24:23.603Z,9.59
2023-04-02T13:26:53.644Z,9.44
2023-04-02T13:29:27.016Z,9.30
2023-04-02T13:31:57.111Z,9.27
2023-04-02T13:34:23.696Z,9.15
2023-04-02T13:36:50.332Z,8.96
2023-04-02T13:39:16.860Z,8.99
2023-04-02T13:41:45.310Z,8.88
2023-04-02T13:44:27.256Z,8.72
2023-04-02T13:46:54.646Z,8.86
2023-04-02T13:49:21.588Z,8.93
2023-04-02T13:51:54.032Z,8.85
2023-04-02T13:54:27.495Z,8.60
2023-04-02T13:56:55.945Z,8.42
2023-04-02T13:59:22.696Z,8.37
2023-04-02T14:01:52.403Z,8.34
2023-04-02T14:04:24.587Z,8.24
2023-04-02T14:07:25.862Z,8.39
2023-04-02T14:10:07.587Z,8.84
2023-04-02T14:12:46.216Z,9.19
2023-04-02T14:15:35.010Z,9.53
2023-04-02T14:18:13.870Z,9.54
2023-04-02T14:20:58.581Z,9.53
2023-04-02T14:23:46.884Z,9.37
2023-04-02T14:26:39.558Z,9.00
2023-04-02T14:29:16.168Z,8.61
2023-04-02T14:31:59.649Z,8.23
2023-04-02T14:35:03.747Z,8.09
2023-04-02T14:38:07.787Z,8.10
2023-04-02T14:41:22.072Z,8.48
2023-04-02T14:44:10.550Z,8.86
2023-04-02T14:46:38.215Z,9.14
2023-04-02T14:49:11.429Z,9.41
2023-04-02T14:51:41.521Z,9.24
2023-04-02T14:54:21.211Z,8.90
2023-04-02T14:56:52.447Z,8.47
2023-04-02T14:59:46.450Z,8.25
2023-04-02T15:02:18.834Z,8.10
2023-04-02T15:05:01.202Z,8.05
2023-04-02T15:07:39.821Z,8.29
2023-04-02T15:10:21.946Z,8.55
2023-04-02T15:12:49.565Z,8.66
2023-04-02T15:15:40.925Z,8.99
2023-04-02T15:18:15.863Z,9.32
2023-04-02T15:21:15.996Z,9.49
2023-04-02T15:23:54.892Z,9.48
2023-04-02T15:26:32.151Z,9.19
2023-04-02T15:29:28.894Z,8.91
2023-04-02T15:32:05.758Z,8.57
2023-04-02T15:34:39.806Z,8.56
2023-04-02T15:37:23.427Z,8.49
2023-04-02T15:40:18.304Z,8.46
2023-04-02T15:42:56.995Z,8.62
2023-04-02T15:45:37.171Z,8.75
2023-04-02T15:48:11.644Z,9.01
2023-04-02T15:50:47.419Z,9.06
2023-04-02T15:53:39.176Z,9.17
2023-04-02T15:56:36.104Z,9.13
2023-04-02T15:59:40.097Z,9.13
2023-04-02T16:02:48.153Z,8.91
2023-04-02T16:05:36.574Z,8.81
2023-04-02T16:08:27.950Z,8.73
2023-04-02T16:10:54.740Z,8.68
2023-04-02T16:13:28.606Z,8.55
2023-04-02T16:16:22.456Z,8.49
2023-04-02T16:19:15.967Z,8.35
2023-04-02T16:21:51.598Z,7.99
2023-04-02T16:24:18.044Z,7.96
2023-04-02T16:26:52.293Z,8.15
2023-04-02T16:29:53.926Z,8.28
2023-04-02T16:32:49.268Z,8.44
2023-04-02T16:38:30.461Z,8.35
2023-04-02T16:41:27.636Z,8.49
2023-04-02T16:44:06.284Z,8.48
2023-04-02T16:46:57.397Z,8.28
2023-04-02T16:49:37.490Z,8.23
2023-04-02T16:52:38.477Z,8.28
2023-04-02T16:55:14.197Z,8.15
2023-04-02T16:57:57.310Z,8.04
2023-04-02T17:00:32.696Z,7.92
2023-04-02T17:03:25.642Z,7.91
2023-04-02T17:06:05.740Z,7.90
2023-04-02T17:08:43.809Z,7.86
2023-04-02T17:11:21.430Z,7.76
2023-04-02T17:13:56.561Z,7.73
2023-04-02T17:16:41.266Z,7.61
2023-04-02T17:19:13.315Z,7.58
2023-04-02T17:21:44.208Z,7.56
2023-04-02T17:24:14.188Z,7.56
2023-04-02T17:26:43.433Z,7.57
2023-04-02T17:29:17.210Z,7.44
2023-04-02T17:31:45.781Z,7.40
2023-04-02T17:34:15.085Z,7.39
2023-04-02T17:37:04.426Z,7.32
2023-04-02T17:39:42.941Z,7.31
2023-04-02T17:42:44.478Z,7.22
2023-04-02T17:45:28.117Z,7.14
2023-04-02T17:48:17.940Z,7.11
2023-04-02T17:50:53.504Z,7.16
2023-04-02T17:53:36.787Z,7.03
2023-04-02T17:56:18.667Z,7.07
2023-04-02T17:59:16.827Z,6.92
2023-04-02T18:01:49.942Z,6.99
2023-04-02T18:04:25.898Z,6.78
2023-04-02T18:07:12.083Z,6.75
2023-04-02T18:09:50.510Z,6.77
2023-04-02T18:12:39.858Z,6.70
2023-04-02T18:15:24.391Z,6.56
2023-04-02T18:18:18.753Z,6.59
2023-04-02T18:21:03.182Z,6.45
2023-04-02T18:24:10.163Z,6.41
2023-04-02T18:26:55.184Z,6.27
2023-04-02T18:29:42.053Z,6.17
2023-04-02T18:32:42.532Z,6.13
2023-04-02T18:35:16.920Z,6.01
2023-04-02T18:37:58.567Z,5.98
2023-04-02T18:40:34.549Z,6.01
2023-04-02T18:43:18.899Z,5.97
2023-04-02T18:46:14.203Z,6.01
2023-04-02T18:48:52.225Z,5.92
2023-04-02T18:51:22.402Z,5.80
2023-04-02T18:53:54.375Z,5.79
2023-04-02T18:56:23.626Z,5.68
2023-04-02T18:59:12.254Z,5.54
2023-04-02T19:01:46.493Z,5.53
2023-04-02T19:04:18.950Z,5.56
2023-04-02T19:06:52.211Z,5.52
2023-04-02T19:09:30.954Z,5.46
2023-04-02T19:11:57.399Z,5.42
2023-04-02T19:14:24.186Z,5.32
2023-04-02T19:16:53.552Z,5.22
2023-04-02T19:19:23.203Z,5.18
2023-04-02T19:22:08.544Z,5.06
2023-04-02T19:24:57.397Z,4.98
2023-04-02T19:27:53.159Z,4.94
2023-04-02T19:30:35.720Z,4.88
2023-04-02T19:33:28.105Z,4.85
2023-04-02T19:36:05.601Z,4.77
2023-04-02T19:38:47.300Z,4.82
2023-04-02T19:41:39.674Z,4.62
2023-04-02T19:44:12.621Z,4.55
2023-04-02T19:46:39.980Z,4.58
2023-04-02T19:49:22.754Z,4.59
2023-04-02T19:51:49.923Z,4.55
2023-04-02T19:54:17.941Z,4.34
2023-04-02T19:56:44.620Z,4.46
2023-04-02T19:59:18.086Z,4.40
2023-04-02T20:01:46.455Z,4.33
2023-04-02T20:04:14.200Z,4.30
2023-04-02T20:06:40.797Z,4.28
2023-04-02T20:09:08.525Z,4.25
2023-04-02T20:11:37.357Z,4.11
2023-04-02T20:14:04.300Z,4.11
2023-04-02T20:16:30.901Z,3.92
2023-04-02T20:18:57.605Z,3.98
2023-04-02T20:21:24.201Z,3.88
2023-04-02T20:23:54.636Z,3.90
2023-04-02T20:26:22.462Z,3.86
2023-04-02T20:28:48.970Z,3.84
2023-04-02T20:31:17.532Z,3.83
2023-04-02T20:33:44.405Z,3.71
2023-04-02T20:36:16.220Z,3.70
2023-04-02T20:38:43.537Z,3.67
2023-04-02T20:41:10.268Z,3.60
2023-04-02T20:43:40.204Z,3.56
2023-04-02T20:46:10.104Z,3.52
2023-04-02T20:48:37.563Z,3.54
2023-04-02T20:51:06.192Z,3.50
2023-04-02T20:53:34.519Z,3.49
2023-04-02T20:56:06.979Z,3.45
2023-04-02T20:58:35.592Z,3.38
2023-04-02T21:01:16.733Z,3.36
2023-04-02T21:03:43.729Z,3.26
2023-04-02T21:06:18.787Z,3.27
2023-04-02T21:08:45.535Z,3.19
2023-04-02T21:11:12.403Z,3.08
2023-04-02T21:13:42.074Z,3.17
2023-04-02T21:16:19.096Z,3.14
2023-04-02T21:18:46.809Z,2.93
2023-04-02T21:21:14.569Z,3.01
2023-04-02T21:23:42.845Z,2.94
2023-04-02T21:26:12.802Z,2.89
2023-04-02T21:28:41.121Z,2.87
2023-04-02T21:31:17.618Z,2.83
2023-04-02T21:33:46.576Z,2.86
2023-04-02T21:36:16.062Z,2.80
2023-04-02T21:38:51.825Z,2.80
2023-04-02T21:41:24.075Z,2.76
2023-04-02T21:43:51.320Z,2.70
2023-04-02T21:46:19.832Z,2.76
2023-04-02T21:48:46.644Z,2.65
2023-04-02T21:51:15.903Z,2.71
2023-04-02T21:53:43.060Z,2.67
2023-04-02T21:56:17.016Z,2.59
2023-04-02T21:58:45.092Z,2.53
2023-04-02T22:01:23.812Z,2.66
2023-04-02T22:03:53.764Z,2.51
2023-04-02T22:06:21.536Z,2.50
2023-04-02T22:08:53.242Z,2.44
2023-04-02T22:11:22.695Z,2.37
2023-04-02T22:13:49.953Z,2.43
2023-04-02T22:16:22.440Z,2.35
2023-04-02T22:18:51.009Z,2.27
2023-04-02T22:21:19.542Z,2.28
2023-04-02T22:23:46.945Z,2.26
2023-04-02T22:26:15.814Z,2.22
2023-04-02T22:28:42.446Z,2.06
2023-04-02T22:31:15.205Z,2.04
2023-04-02T22:33:42.661Z,2.01
2023-04-02T22:36:09.596Z,1.92
2023-04-02T22:38:36.892Z,1.84
2023-04-02T22:41:14.300Z,1.80
2023-04-02T22:43:43.768Z,1.71
2023-04-02T22:46:11.916Z,1.72
2023-04-02T22:48:41.248Z,1.64
2023-04-02T22:51:09.607Z,1.49
2023-04-02T22:53:36.772Z,1.51
2023-04-02T22:56:26.345Z,1.62
2023-04-02T22:58:53.057Z,1.61
2023-04-02T23:01:23.795Z,1.52
2023-04-02T23:03:54.726Z,1.46
2023-04-02T23:06:22.407Z,1.51
2023-04-02T23:08:48.936Z,1.49
2023-04-02T23:11:18.583Z,1.52
2023-04-02T23:13:47.226Z,1.43
2023-04-02T23:16:15.362Z,1.42
2023-04-02T23:18:42.810Z,1.53
2023-04-02T23:21:09.897Z,1.42
2023-04-02T23:23:37.671Z,1.30
2023-04-02T23:26:22.352Z,1.30
2023-04-02T23:28:50.274Z,1.21
2023-04-02T23:31:22.796Z,1.24
2023-04-02T23:33:50.552Z,1.17
2023-04-02T23:36:28.867Z,1.05
2023-04-02T23:38:59.599Z,0.97
2023-04-02T23:41:29.451Z,1.00
2023-04-02T23:43:56.715Z,0.92
2023-04-02T23:46:24.372Z,0.92
2023-04-02T23:48:51.651Z,0.87
2023-04-02T23:51:18.634Z,0.77
2023-04-02T23:53:45.180Z,0.75
2023-04-02T23:56:12.004Z,0.67
2023-04-02T23:58:38.718Z,0.53
